createdAt,value
2023-01-17T00:02:44.351Z,16.70
2023-01-17T00:06:44.474Z,16.70
2023-01-17T00:10:27.194Z,16.60
2023-01-17T00:14:08.809Z,16.70
2023-01-17T00:17:50.693Z,16.60
2023-01-17T00:21:50.860Z,16.60
2023-01-17T00:25:56.118Z,16.60
2023-01-17T00:29:37.704Z,16.60
2023-01-17T00:33:19.714Z,16.60
2023-01-17T00:37:01.287Z,16.50
2023-01-17T00:40:43.519Z,16.60
2023-01-17T00:44:43.726Z,16.50
2023-01-17T00:48:43.831Z,16.50
2023-01-17T00:52:44.013Z,16.50
2023-01-17T00:56:44.148Z,16.50
2023-01-17T01:00:44.317Z,16.50
2023-01-17T01:04:44.406Z,16.50
2023-01-17T01:08:46.501Z,16.40
2023-01-17T01:12:46.610Z,16.40
2023-01-17T01:16:46.680Z,16.50
2023-01-17T01:20:46.805Z,16.40
2023-01-17T01:24:47.197Z,16.40
2023-01-17T01:28:47.232Z,16.40
2023-01-17T01:32:47.390Z,16.40
2023-01-17T01:36:29.047Z,16.30
2023-01-17T01:40:11.133Z,16.30
2023-01-17T01:43:54.176Z,16.30
2023-01-17T01:47:38.127Z,16.30
2023-01-17T01:51:23.996Z,16.30
2023-01-17T01:55:08.531Z,16.30
2023-01-17T01:58:51.210Z,16.30
2023-01-17T02:02:33.211Z,16.30
2023-01-17T02:06:25.901Z,16.30
2023-01-17T02:10:07.757Z,16.30
2023-01-17T02:13:49.396Z,16.30
2023-01-17T02:17:54.399Z,16.30
2023-01-17T02:21:41.834Z,16.20
2023-01-17T02:25:43.512Z,16.20
2023-01-17T02:29:34.161Z,16.20
2023-01-17T02:33:15.802Z,16.20
2023-01-17T02:36:57.786Z,16.20
2023-01-17T02:40:52.162Z,16.20
2023-01-17T02:44:40.060Z,16.20
2023-01-17T02:48:24.645Z,16.20
2023-01-17T02:52:12.357Z,16.20
2023-01-17T02:56:12.712Z,16.10
2023-01-17T03:00:05.603Z,16.10
2023-01-17T03:03:49.856Z,16.10
2023-01-17T03:07:32.058Z,16.10
2023-01-17T03:11:13.813Z,16.10
2023-01-17T03:14:55.608Z,16.10
2023-01-17T03:18:37.218Z,16.10
2023-01-17T03:22:18.877Z,16.10
2023-01-17T03:26:00.521Z,16.00
2023-01-17T03:29:42.106Z,16.10
2023-01-17T03:33:24.408Z,16.10
2023-01-17T03:37:06.036Z,16.00
2023-01-17T03:40:47.700Z,16.00
2023-01-17T03:44:29.341Z,16.00
2023-01-17T03:48:10.973Z,16.00
2023-01-17T03:51:52.681Z,16.00
2023-01-17T03:55:34.332Z,16.00
2023-01-17T03:59:15.931Z,16.00
2023-01-17T04:02:57.578Z,16.00
2023-01-17T04:06:39.159Z,15.90
2023-01-17T04:10:20.768Z,16.00
2023-01-17T04:14:02.498Z,16.00
2023-01-17T04:17:44.117Z,16.00
2023-01-17T04:21:25.832Z,16.00
2023-01-17T04:25:07.650Z,15.90
2023-01-17T04:28:49.527Z,15.90
2023-01-17T04:32:31.127Z,15.90
2023-01-17T04:36:12.713Z,15.90
2023-01-17T04:39:54.304Z,15.90
2023-01-17T04:43:35.976Z,15.90
2023-01-17T04:47:17.574Z,15.90
2023-01-17T04:51:00.598Z,15.90
2023-01-17T04:54:42.300Z,15.90
2023-01-17T04:58:24.249Z,15.90
2023-01-17T05:02:06.012Z,15.90
2023-01-17T05:05:48.058Z,15.90
2023-01-17T05:09:29.674Z,15.80
2023-01-17T05:13:11.493Z,15.80
2023-01-17T05:16:56.735Z,15.80
2023-01-17T05:20:38.409Z,15.80
2023-01-17T05:24:20.025Z,15.80
2023-01-17T05:28:02.355Z,15.80
2023-01-17T05:31:43.973Z,15.80
2023-01-17T05:35:27.107Z,15.80
2023-01-17T05:39:08.744Z,15.80
2023-01-17T05:42:51.511Z,15.80
2023-01-17T05:46:33.233Z,15.80
2023-01-17T05:50:16.441Z,15.80
2023-01-17T05:53:58.075Z,15.70
2023-01-17T05:57:39.722Z,15.70
2023-01-17T06:01:21.445Z,15.70
2023-01-17T06:05:03.665Z,15.70
2023-01-17T06:08:45.325Z,15.70
2023-01-17T06:12:27.002Z,15.70
2023-01-17T06:16:08.725Z,15.70
2023-01-17T06:19:50.366Z,15.70
2023-01-17T06:23:32.058Z,15.70
2023-01-17T06:27:13.649Z,15.70
2023-01-17T06:30:55.343Z,15.60
2023-01-17T06:34:37.446Z,15.70
2023-01-17T06:38:19.197Z,15.70
2023-01-17T06:42:03.725Z,15.70
2023-01-17T06:45:45.374Z,15.60
2023-01-17T06:49:27.129Z,15.70
2023-01-17T06:53:08.859Z,15.60
2023-01-17T06:56:50.451Z,15.60
2023-01-17T07:00:34.995Z,15.60
2023-01-17T07:04:16.778Z,15.60
2023-01-17T07:07:58.436Z,15.50
2023-01-17T07:11:40.043Z,15.60
2023-01-17T07:15:21.656Z,15.60
2023-01-17T07:19:03.342Z,15.50
2023-01-17T07:22:45.245Z,15.50
2023-01-17T07:26:26.930Z,15.50
2023-01-17T07:30:09.381Z,15.50
2023-01-17T07:33:51.266Z,15.60
2023-01-17T07:37:32.902Z,15.50
2023-01-17T07:41:14.540Z,15.50
2023-01-17T07:44:56.173Z,15.40
2023-01-17T07:48:37.761Z,15.40
2023-01-17T07:52:19.398Z,15.40
2023-01-17T07:56:02.852Z,15.50
